Bremen — C6JC3 — position and weather

sailwx.info

Track history (hours):
 
Tides and Currents Weather Stations Pressure Air Temp Water Temp Dewpoint Dewpoint Depression Visibility Wind Speed Wind Dir Waves Ship Positions

Bremen

Operator: Hapag-Lloyd Container Line

Last reported at 2019-Nov-09 02:47 UTC. Time now 2019-Dec-08 10:06 UTC.
Position S 29°53' E 031°03'.
Warning: this ship's position is 29 days out of date.

Length 111.5 m; beam 17 m; draft 4.8 m.

Type: Ship. MMSI: 308429000.

Date/timePositionNaut miles runAvg speedWind from/ knotsBaromVisibWave heightAir tempDewpointWater temp
2019-Nov-09 02:47S 29°53' E 031°03'4 5.4
2019-Nov-09 01:59S 29°54' E 031°07'  
2019-Nov-05 14:55S 34°06' E 018°12'16 8.2
2019-Nov-05 13:00S 33°55' E 018°26'0 0.0
2019-Nov-05 11:28S 33°55' E 018°26'0 0.0
2019-Nov-05 10:58S 33°55' E 018°26'0 0.0
2019-Nov-05 08:28S 33°55' E 018°26'0 0.0
2019-Nov-05 05:58S 33°55' E 018°26'0 0.0
2019-Nov-05 03:25S 33°55' E 018°26'0 0.0
2019-Nov-05 00:28S 33°55' E 018°26'0 0.0
2019-Nov-04 23:58S 33°55' E 018°26'0 0.0
2019-Nov-04 22:55S 33°55' E 018°26'0 0.0
2019-Nov-04 19:28S 33°55' E 018°26'0 0.0
2019-Nov-04 09:55S 33°55' E 018°26'0 0.0
2019-Nov-04 05:30S 33°55' E 018°26'0 0.0
2019-Nov-04 05:00S 33°55' E 018°26'6 2.9
2019-Nov-04 03:00S 33°52' E 018°19'20 9.9
2019-Nov-04 00:57S 33°38' E 018°02'10 9.2
2019-Nov-03 23:54S 33°31' E 017°54'  
Track history (hours):
 
Tides and Currents Weather Stations Pressure Air Temp Water Temp Dewpoint Dewpoint Depression Visibility Wind Speed Wind Dir Waves Ship Positions

Bremen

Operator: Hapag-Lloyd Container Line

Last reported at 2019-Nov-09 02:47 UTC. Time now 2019-Dec-08 10:06 UTC.
Position S 29°53' E 031°03'.
Warning: this ship's position is 29 days out of date.

Length 111.5 m; beam 17 m; draft 4.8 m.

Type: Ship. MMSI: 308429000.

Date/timePositionNaut miles runAvg speedWind from/ knotsBaromVisibWave heightAir tempDewpointWater temp
2019-Nov-09 02:47S 29°53' E 031°03'4 5.4
2019-Nov-09 01:59S 29°54' E 031°07'  
2019-Nov-05 14:55S 34°06' E 018°12'16 8.2
2019-Nov-05 13:00S 33°55' E 018°26'0 0.0
2019-Nov-05 11:28S 33°55' E 018°26'0 0.0
2019-Nov-05 10:58S 33°55' E 018°26'0 0.0
2019-Nov-05 08:28S 33°55' E 018°26'0 0.0
2019-Nov-05 05:58S 33°55' E 018°26'0 0.0
2019-Nov-05 03:25S 33°55' E 018°26'0 0.0
2019-Nov-05 00:28S 33°55' E 018°26'0 0.0
2019-Nov-04 23:58S 33°55' E 018°26'0 0.0
2019-Nov-04 22:55S 33°55' E 018°26'0 0.0
2019-Nov-04 19:28S 33°55' E 018°26'0 0.0
2019-Nov-04 09:55S 33°55' E 018°26'0 0.0
2019-Nov-04 05:30S 33°55' E 018°26'0 0.0
2019-Nov-04 05:00S 33°55' E 018°26'6 2.9
2019-Nov-04 03:00S 33°52' E 018°19'20 9.9
2019-Nov-04 00:57S 33°38' E 018°02'10 9.2
2019-Nov-03 23:54S 33°31' E 017°54'  

Dump ship's entire track history